createdAt,value
2018-11-25T00:00:34.737Z,3.99
2018-11-25T00:03:04.354Z,3.90
2018-11-25T00:05:33.972Z,3.85
2018-11-25T00:08:03.673Z,3.82
2018-11-25T00:10:33.363Z,3.84
2018-11-25T00:13:03.172Z,3.87
2018-11-25T00:15:32.873Z,3.92
2018-11-25T00:18:02.477Z,3.97
2018-11-25T00:20:32.092Z,4.01
2018-11-25T00:23:01.791Z,4.05
2018-11-25T00:25:31.397Z,4.07
2018-11-25T00:28:01.084Z,4.10
2018-11-25T00:30:30.773Z,4.12
2018-11-25T00:33:00.360Z,4.11
2018-11-25T00:35:30.056Z,4.08
2018-11-25T00:37:59.760Z,4.05
2018-11-25T00:40:29.385Z,4.04
2018-11-25T00:42:58.976Z,3.99
2018-11-25T00:45:28.566Z,3.96
2018-11-25T00:47:58.257Z,3.91
2018-11-25T00:50:27.875Z,3.86
2018-11-25T00:52:57.455Z,3.80
2018-11-25T00:55:27.141Z,3.71
2018-11-25T00:57:56.841Z,3.62
2018-11-25T01:00:26.702Z,3.53
2018-11-25T01:02:56.324Z,3.48
2018-11-25T01:05:25.984Z,3.43
2018-11-25T01:07:55.592Z,3.39
2018-11-25T01:10:25.297Z,3.37
2018-11-25T01:12:54.920Z,3.37
2018-11-25T01:15:24.624Z,3.36
2018-11-25T01:17:54.232Z,3.36
2018-11-25T01:20:23.872Z,3.35
2018-11-25T01:22:53.501Z,3.36
2018-11-25T01:25:23.186Z,3.43
2018-11-25T01:27:52.932Z,3.54
2018-11-25T01:30:22.532Z,3.62
2018-11-25T01:32:52.152Z,3.71
2018-11-25T01:35:21.828Z,3.76
2018-11-25T01:37:51.496Z,3.80
2018-11-25T01:40:21.100Z,3.84
2018-11-25T01:42:50.723Z,3.88
2018-11-25T01:45:20.362Z,3.90
2018-11-25T01:47:49.985Z,3.93
2018-11-25T01:50:19.645Z,3.95
2018-11-25T01:52:49.613Z,3.95
2018-11-25T01:55:19.979Z,3.94
2018-11-25T01:57:49.629Z,3.94
2018-11-25T02:00:20.835Z,3.94
2018-11-25T02:02:50.808Z,3.94
2018-11-25T02:05:20.455Z,3.95
2018-11-25T02:07:50.244Z,3.98
2018-11-25T02:10:20.288Z,3.98
2018-11-25T02:12:49.923Z,3.97
2018-11-25T02:15:19.737Z,3.99
2018-11-25T02:17:49.342Z,3.98
2018-11-25T02:20:24.211Z,4.00
2018-11-25T02:22:55.668Z,4.04
2018-11-25T02:25:25.503Z,4.07
2018-11-25T02:27:55.139Z,4.11
2018-11-25T02:30:24.771Z,4.18
2018-11-25T02:32:54.618Z,4.19
2018-11-25T02:35:24.225Z,4.22
2018-11-25T02:37:53.983Z,4.25
2018-11-25T02:40:24.036Z,4.27
2018-11-25T02:42:53.660Z,4.30
2018-11-25T02:45:23.300Z,4.35
2018-11-25T02:47:52.918Z,4.42
2018-11-25T02:50:28.293Z,4.46
2018-11-25T02:53:00.837Z,4.48
2018-11-25T02:55:30.606Z,4.47
2018-11-25T02:58:00.869Z,4.43
2018-11-25T03:00:29.587Z,4.29
2018-11-25T03:02:58.969Z,4.15
2018-11-25T03:05:28.378Z,4.08
2018-11-25T03:07:57.798Z,4.11
2018-11-25T03:10:27.257Z,4.18
2018-11-25T03:12:56.657Z,4.25
2018-11-25T03:15:26.206Z,4.30
2018-11-25T03:17:55.609Z,4.36
2018-11-25T03:20:25.008Z,4.41
2018-11-25T03:22:55.403Z,4.44
2018-11-25T03:25:24.794Z,4.44
2018-11-25T03:27:54.434Z,4.46
2018-11-25T03:30:24.049Z,4.46
2018-11-25T03:32:54.477Z,4.45
2018-11-25T03:35:23.950Z,4.45
2018-11-25T03:37:53.533Z,4.42
2018-11-25T03:40:22.951Z,4.41
2018-11-25T03:42:52.399Z,4.43
2018-11-25T03:45:22.632Z,4.42
2018-11-25T03:47:52.031Z,4.40
2018-11-25T03:50:21.421Z,4.40
2018-11-25T03:52:50.942Z,4.40
2018-11-25T03:55:20.360Z,4.41
2018-11-25T03:57:49.859Z,4.43
2018-11-25T04:00:23.592Z,4.43
2018-11-25T04:02:55.041Z,4.44
2018-11-25T04:05:24.485Z,4.47
2018-11-25T04:07:53.884Z,4.51
2018-11-25T04:10:30.139Z,4.55
2018-11-25T04:12:59.556Z,4.58
2018-11-25T04:15:29.000Z,4.60
2018-11-25T04:17:58.426Z,4.60
2018-11-25T04:20:27.816Z,4.60
2018-11-25T04:22:57.289Z,4.60
2018-11-25T04:25:26.703Z,4.61
2018-11-25T04:27:56.121Z,4.59
2018-11-25T04:30:25.512Z,4.58
2018-11-25T04:32:54.937Z,4.61
2018-11-25T04:35:24.329Z,4.61
2018-11-25T04:37:53.772Z,4.61
2018-11-25T04:40:23.414Z,4.61
2018-11-25T04:42:52.889Z,4.60
2018-11-25T04:45:22.326Z,4.58
2018-11-25T04:47:51.758Z,4.58
2018-11-25T04:50:22.302Z,4.58
2018-11-25T04:52:51.746Z,4.60
2018-11-25T04:55:21.234Z,4.62
2018-11-25T04:57:51.674Z,4.64
2018-11-25T05:00:21.309Z,4.65
2018-11-25T05:02:51.793Z,4.65
2018-11-25T05:05:21.357Z,4.66
2018-11-25T05:07:50.783Z,4.67
2018-11-25T05:10:20.217Z,4.66
2018-11-25T05:12:49.613Z,4.69
2018-11-25T05:15:21.595Z,4.69
2018-11-25T05:17:51.527Z,4.71
2018-11-25T05:20:21.523Z,4.71
2018-11-25T05:22:50.989Z,4.72
2018-11-25T05:25:20.951Z,4.70
2018-11-25T05:27:50.377Z,4.70
2018-11-25T05:30:21.098Z,4.71
2018-11-25T05:32:50.542Z,4.74
2018-11-25T05:35:21.545Z,4.76
2018-11-25T05:37:51.234Z,4.76
2018-11-25T05:40:20.669Z,4.78
2018-11-25T05:42:50.081Z,4.76
2018-11-25T05:45:20.565Z,4.76
2018-11-25T05:47:49.998Z,4.75
2018-11-25T05:50:20.102Z,4.76
2018-11-25T05:52:49.557Z,4.76
2018-11-25T05:55:18.979Z,4.77
2018-11-25T05:57:48.420Z,4.76
2018-11-25T06:00:38.326Z,4.74
2018-11-25T06:03:07.876Z,4.74
2018-11-25T06:05:37.282Z,4.75
2018-11-25T06:08:07.033Z,4.75
2018-11-25T06:10:36.416Z,4.76
2018-11-25T06:13:06.002Z,4.78
2018-11-25T06:15:35.414Z,4.80
2018-11-25T06:18:04.829Z,4.80
2018-11-25T06:20:34.237Z,4.82
2018-11-25T06:23:04.077Z,4.84
2018-11-25T06:25:33.481Z,4.86
2018-11-25T06:28:02.942Z,4.91
2018-11-25T06:30:32.688Z,4.97
2018-11-25T06:33:02.233Z,5.02
2018-11-25T06:35:31.755Z,5.05
2018-11-25T06:38:01.306Z,5.06
2018-11-25T06:40:30.701Z,5.06
2018-11-25T06:43:00.134Z,5.06
2018-11-25T06:45:31.470Z,5.07
2018-11-25T06:48:00.870Z,5.06
2018-11-25T06:50:30.321Z,5.06
2018-11-25T06:52:59.808Z,5.06
2018-11-25T06:55:29.209Z,5.03
2018-11-25T06:57:58.610Z,5.01
2018-11-25T07:00:28.074Z,5.01
2018-11-25T07:02:57.474Z,5.01
2018-11-25T07:05:26.875Z,5.01
2018-11-25T07:07:56.307Z,5.05
2018-11-25T07:10:25.697Z,5.08
2018-11-25T07:13:13.360Z,5.12
2018-11-25T07:15:42.737Z,5.15
2018-11-25T07:18:12.137Z,5.18
2018-11-25T07:20:41.609Z,5.17
2018-11-25T07:23:11.006Z,5.17
2018-11-25T07:25:40.442Z,5.16
2018-11-25T07:28:18.485Z,5.14
2018-11-25T07:30:39.389Z,5.14
2018-11-25T07:33:08.900Z,5.15
2018-11-25T07:35:38.446Z,5.17
2018-11-25T07:38:07.846Z,5.19
2018-11-25T07:40:37.313Z,5.20
2018-11-25T07:43:07.237Z,5.21
2018-11-25T07:45:36.605Z,5.23
2018-11-25T07:48:06.376Z,5.23
2018-11-25T07:50:35.994Z,5.26
2018-11-25T07:53:05.507Z,5.30
2018-11-25T07:55:34.881Z,5.34
2018-11-25T07:58:04.302Z,5.39
2018-11-25T08:00:33.733Z,5.42
2018-11-25T08:03:03.176Z,5.44
2018-11-25T08:05:32.830Z,5.44
2018-11-25T08:08:02.231Z,5.43
2018-11-25T08:10:31.628Z,5.46
2018-11-25T08:13:01.116Z,5.46
2018-11-25T08:15:30.513Z,5.50
2018-11-25T08:17:59.976Z,5.54
2018-11-25T08:20:29.430Z,5.55
2018-11-25T08:22:58.915Z,5.58
2018-11-25T08:25:28.319Z,5.59
2018-11-25T08:27:57.852Z,5.60
2018-11-25T08:30:27.259Z,5.59
2018-11-25T08:32:56.732Z,5.60
2018-11-25T08:35:26.282Z,5.64
2018-11-25T08:37:55.727Z,5.68
2018-11-25T08:40:26.028Z,5.76
2018-11-25T08:42:55.428Z,5.83
2018-11-25T08:45:24.865Z,5.88
2018-11-25T08:47:54.260Z,5.93
2018-11-25T08:50:23.701Z,5.99
2018-11-25T08:52:53.816Z,6.05
2018-11-25T08:55:26.216Z,6.13
2018-11-25T08:57:56.073Z,6.22
2018-11-25T09:00:27.151Z,6.30
2018-11-25T09:02:57.360Z,6.40
2018-11-25T09:05:26.938Z,6.47
2018-11-25T09:07:56.353Z,6.57
2018-11-25T09:10:25.797Z,6.66
2018-11-25T09:12:57.738Z,6.70
2018-11-25T09:15:29.163Z,6.71
2018-11-25T09:17:58.800Z,6.71
2018-11-25T09:20:28.241Z,6.71
2018-11-25T09:22:57.930Z,6.71
2018-11-25T09:25:30.337Z,6.73
2018-11-25T09:28:01.513Z,6.80
2018-11-25T09:30:32.456Z,6.89
2018-11-25T09:33:02.102Z,7.02
2018-11-25T09:35:31.547Z,7.15
2018-11-25T09:38:00.949Z,7.27
2018-11-25T09:40:30.547Z,7.30
2018-11-25T09:43:00.642Z,7.32
2018-11-25T09:45:30.069Z,7.36
2018-11-25T09:48:01.070Z,7.38
2018-11-25T09:50:30.526Z,7.35
2018-11-25T09:52:59.934Z,7.31
2018-11-25T09:55:29.336Z,7.27
2018-11-25T09:58:01.226Z,7.23
2018-11-25T10:00:35.245Z,7.19
2018-11-25T10:03:06.621Z,7.18
2018-11-25T10:05:36.080Z,7.20
2018-11-25T10:08:05.502Z,7.20
2018-11-25T10:10:34.993Z,7.19
2018-11-25T10:13:04.501Z,7.19
2018-11-25T10:15:33.894Z,7.21
2018-11-25T10:18:03.287Z,7.23
2018-11-25T10:20:33.502Z,7.29
2018-11-25T10:23:02.895Z,7.26
2018-11-25T10:25:32.316Z,7.28
2018-11-25T10:28:01.865Z,7.29
2018-11-25T10:30:31.864Z,7.30
2018-11-25T10:33:04.416Z,7.34
2018-11-25T10:35:33.905Z,7.37
2018-11-25T10:38:03.373Z,7.40
2018-11-25T10:40:32.781Z,7.42
2018-11-25T10:43:02.178Z,7.43
2018-11-25T10:45:31.618Z,7.46
2018-11-25T10:48:01.175Z,7.47
2018-11-25T10:50:30.566Z,7.50
2018-11-25T10:52:59.995Z,7.54
2018-11-25T10:55:29.574Z,7.58
2018-11-25T10:57:58.961Z,7.60
2018-11-25T11:00:36.230Z,7.60
2018-11-25T11:03:12.935Z,7.55
2018-11-25T11:05:47.433Z,7.54
2018-11-25T11:08:16.965Z,7.53
2018-11-25T11:10:46.371Z,7.53
2018-11-25T11:13:15.767Z,7.52
2018-11-25T11:15:45.295Z,7.51
2018-11-25T11:18:14.776Z,7.55
2018-11-25T11:20:44.206Z,7.55
2018-11-25T11:23:13.687Z,7.54
2018-11-25T11:25:43.088Z,7.49
2018-11-25T11:28:12.453Z,7.44
2018-11-25T11:30:41.851Z,7.38
2018-11-25T11:33:11.227Z,7.29
2018-11-25T11:35:40.832Z,7.24
2018-11-25T11:38:10.244Z,7.21
2018-11-25T11:40:39.705Z,7.16
2018-11-25T11:43:09.069Z,7.11
2018-11-25T11:45:38.475Z,7.08
2018-11-25T11:48:07.962Z,7.07
2018-11-25T11:50:37.360Z,7.11
2018-11-25T11:53:07.777Z,7.16
2018-11-25T11:55:37.181Z,7.18
2018-11-25T11:58:06.785Z,7.20
2018-11-25T12:00:36.195Z,7.17
2018-11-25T12:03:06.098Z,7.14
2018-11-25T12:05:37.457Z,7.11
2018-11-25T12:08:07.529Z,7.05
2018-11-25T12:10:36.929Z,6.99
2018-11-25T12:13:07.370Z,6.94
2018-11-25T12:15:36.766Z,6.90
2018-11-25T12:18:07.529Z,6.89
2018-11-25T12:20:36.958Z,6.87
2018-11-25T12:23:08.104Z,6.87
2018-11-25T12:25:37.572Z,6.85
2018-11-25T12:28:07.816Z,6.84
2018-11-25T12:30:37.295Z,6.87
2018-11-25T12:33:06.942Z,6.87
2018-11-25T12:35:36.350Z,6.84
2018-11-25T12:38:06.620Z,6.80
2018-11-25T12:40:36.025Z,6.76
2018-11-25T12:43:05.729Z,6.72
2018-11-25T12:45:35.138Z,6.68
2018-11-25T12:48:04.562Z,6.66
2018-11-25T12:50:33.942Z,6.66
2018-11-25T12:53:03.351Z,6.67
2018-11-25T12:55:32.857Z,6.68
2018-11-25T12:58:02.311Z,6.68
2018-11-25T13:00:40.706Z,6.71
2018-11-25T13:03:12.006Z,6.70
2018-11-25T13:05:45.917Z,6.67
2018-11-25T13:08:12.654Z,6.60
2018-11-25T13:10:42.290Z,6.57
2018-11-25T13:13:12.576Z,6.55
2018-11-25T13:15:42.002Z,6.51
2018-11-25T13:18:11.617Z,6.50
2018-11-25T13:20:41.106Z,6.50
2018-11-25T13:23:10.506Z,6.53
2018-11-25T13:25:39.943Z,6.55
2018-11-25T13:28:09.456Z,6.51
2018-11-25T13:30:38.866Z,6.46
2018-11-25T13:33:08.758Z,6.43
2018-11-25T13:35:40.004Z,6.38
2018-11-25T13:38:09.602Z,6.38
2018-11-25T13:40:39.005Z,6.42
2018-11-25T13:43:08.679Z,6.43
2018-11-25T13:45:38.121Z,6.43
2018-11-25T13:48:08.267Z,6.42
2018-11-25T13:50:37.746Z,6.39
2018-11-25T13:53:07.757Z,6.38
2018-11-25T13:55:37.137Z,6.35
2018-11-25T13:58:06.961Z,6.34
2018-11-25T14:00:42.409Z,6.36
2018-11-25T14:03:17.737Z,6.38
2018-11-25T14:05:53.066Z,6.38
2018-11-25T14:08:16.507Z,6.38
2018-11-25T14:10:45.918Z,6.38
2018-11-25T14:13:15.483Z,6.38
2018-11-25T14:15:44.976Z,6.40
2018-11-25T14:18:14.376Z,6.41
2018-11-25T14:20:44.239Z,6.38
2018-11-25T14:23:13.695Z,6.40
2018-11-25T14:25:43.069Z,6.40
2018-11-25T14:28:14.757Z,6.40
2018-11-25T14:30:44.264Z,6.38
2018-11-25T14:33:13.664Z,6.37
2018-11-25T14:35:43.076Z,6.36
2018-11-25T14:38:12.479Z,6.38
2018-11-25T14:40:41.980Z,6.38
2018-11-25T14:43:11.622Z,6.38
2018-11-25T14:45:41.296Z,6.40
2018-11-25T14:48:10.682Z,6.42
2018-11-25T14:50:40.245Z,6.42
2018-11-25T14:53:09.694Z,6.41
2018-11-25T14:55:39.094Z,6.40
2018-11-25T14:58:08.502Z,6.38
2018-11-25T15:00:37.868Z,6.38
2018-11-25T15:03:08.545Z,6.35
2018-11-25T15:05:44.106Z,6.33
2018-11-25T15:08:21.149Z,6.32
2018-11-25T15:10:50.570Z,6.31
2018-11-25T15:13:19.970Z,6.30
2018-11-25T15:15:49.800Z,6.28
2018-11-25T15:18:19.347Z,6.25
2018-11-25T15:20:48.801Z,6.22
2018-11-25T15:23:18.206Z,6.19
2018-11-25T15:25:53.515Z,6.15
2018-11-25T15:28:22.907Z,6.13
2018-11-25T15:30:52.355Z,6.12
2018-11-25T15:33:21.776Z,6.14
2018-11-25T15:35:51.168Z,6.15
2018-11-25T15:38:20.664Z,6.15
2018-11-25T15:40:50.099Z,6.16
2018-11-25T15:43:19.471Z,6.19
2018-11-25T15:45:48.863Z,6.18
2018-11-25T15:48:29.065Z,6.17
2018-11-25T15:50:58.538Z,6.18
2018-11-25T15:53:27.939Z,6.18
2018-11-25T15:56:00.343Z,6.17
2018-11-25T15:58:29.828Z,6.19
2018-11-25T16:00:59.264Z,6.20
2018-11-25T16:03:28.761Z,6.22
2018-11-25T16:06:03.453Z,6.22
2018-11-25T16:08:38.045Z,6.23
2018-11-25T16:11:02.290Z,6.24
2018-11-25T16:13:31.762Z,6.24
2018-11-25T16:16:01.225Z,6.25
2018-11-25T16:18:30.825Z,6.25
2018-11-25T16:21:00.287Z,6.27
2018-11-25T16:23:29.729Z,6.28
2018-11-25T16:26:03.184Z,6.29
2018-11-25T16:28:36.910Z,6.27
2018-11-25T16:31:06.898Z,6.29
2018-11-25T16:33:36.439Z,6.30
2018-11-25T16:36:06.274Z,6.31
2018-11-25T16:38:35.796Z,6.31
2018-11-25T16:41:05.990Z,6.29
2018-11-25T16:43:35.608Z,6.27
2018-11-25T16:46:05.077Z,6.26
2018-11-25T16:48:34.505Z,6.24
2018-11-25T16:51:04.002Z,6.25
2018-11-25T16:53:33.394Z,6.26
2018-11-25T16:56:02.779Z,6.24
2018-11-25T16:58:32.200Z,6.21
2018-11-25T17:01:01.791Z,6.17
2018-11-25T17:03:31.078Z,6.13
2018-11-25T17:06:00.664Z,6.10
2018-11-25T17:08:36.635Z,6.08
2018-11-25T17:11:07.104Z,6.07
2018-11-25T17:13:36.664Z,6.06
2018-11-25T17:16:07.425Z,6.06
2018-11-25T17:18:37.489Z,6.02
2018-11-25T17:21:06.898Z,5.99
2018-11-25T17:23:36.473Z,5.99
2018-11-25T17:26:06.062Z,5.98
2018-11-25T17:28:35.471Z,5.96
2018-11-25T17:31:04.981Z,5.93
2018-11-25T17:33:34.420Z,5.91
2018-11-25T17:36:03.829Z,5.90
2018-11-25T17:38:33.260Z,5.87
2018-11-25T17:41:02.686Z,5.83
2018-11-25T17:43:32.194Z,5.83
2018-11-25T17:46:01.705Z,5.82
2018-11-25T17:48:31.179Z,5.79
2018-11-25T17:51:00.572Z,5.76
2018-11-25T17:53:29.990Z,5.74
2018-11-25T17:55:59.451Z,5.71
2018-11-25T17:58:29.067Z,5.67
2018-11-25T18:01:04.749Z,5.65
2018-11-25T18:03:36.282Z,5.60
2018-11-25T18:06:06.071Z,5.55
2018-11-25T18:08:35.482Z,5.51
2018-11-25T18:11:05.158Z,5.50
2018-11-25T18:13:38.003Z,5.50
2018-11-25T18:16:09.981Z,5.48
2018-11-25T18:18:43.166Z,5.48
2018-11-25T18:21:17.324Z,5.48
2018-11-25T18:23:46.810Z,5.47
2018-11-25T18:26:16.337Z,5.47
2018-11-25T18:28:45.801Z,5.48
2018-11-25T18:31:15.253Z,5.47
2018-11-25T18:33:44.726Z,5.48
2018-11-25T18:36:15.173Z,5.49
2018-11-25T18:38:44.938Z,5.46
2018-11-25T18:41:14.351Z,5.44
2018-11-25T18:43:43.755Z,5.42
2018-11-25T18:46:13.318Z,5.40
2018-11-25T18:48:45.969Z,5.37
2018-11-25T18:51:15.479Z,5.36
2018-11-25T18:53:44.863Z,5.35
2018-11-25T18:56:14.272Z,5.34
2018-11-25T18:58:43.809Z,5.35
2018-11-25T19:01:24.314Z,5.37
2018-11-25T19:03:53.781Z,5.36
2018-11-25T19:06:23.233Z,5.36
2018-11-25T19:08:52.751Z,5.35
2018-11-25T19:11:22.181Z,5.33
2018-11-25T19:13:51.803Z,5.30
2018-11-25T19:16:21.229Z,5.28
2018-11-25T19:18:50.874Z,5.27
2018-11-25T19:21:20.258Z,5.24
2018-11-25T19:23:49.681Z,5.24
2018-11-25T19:26:19.116Z,5.24
2018-11-25T19:28:48.585Z,5.27
2018-11-25T19:31:17.986Z,5.29
2018-11-25T19:33:47.412Z,5.30
2018-11-25T19:36:16.893Z,5.31
2018-11-25T19:38:46.297Z,5.33
2018-11-25T19:41:15.696Z,5.35
2018-11-25T19:43:45.098Z,5.37
2018-11-25T19:46:14.495Z,5.38
2018-11-25T19:48:43.905Z,5.37
2018-11-25T19:51:17.568Z,5.36
2018-11-25T19:53:42.729Z,5.35
2018-11-25T19:56:12.207Z,5.35
2018-11-25T19:58:41.625Z,5.35
2018-11-25T20:01:11.023Z,5.34
2018-11-25T20:03:40.420Z,5.33
2018-11-25T20:06:09.820Z,5.28
2018-11-25T20:08:39.291Z,5.26
2018-11-25T20:11:08.729Z,5.25
2018-11-25T20:13:38.155Z,5.23
2018-11-25T20:16:12.744Z,5.19
2018-11-25T20:18:42.480Z,5.12
2018-11-25T20:21:16.672Z,5.06
2018-11-25T20:23:46.087Z,5.03
2018-11-25T20:26:15.498Z,4.97
2018-11-25T20:28:44.893Z,4.96
2018-11-25T20:31:14.286Z,4.95
2018-11-25T20:33:52.327Z,4.95
2018-11-25T20:36:18.498Z,4.95
2018-11-25T20:38:53.161Z,4.93
2018-11-25T20:41:22.583Z,4.93
2018-11-25T20:43:52.057Z,4.93
2018-11-25T20:46:26.666Z,4.93
2018-11-25T20:48:56.052Z,4.93
2018-11-25T20:51:30.970Z,4.91
2018-11-25T20:54:01.014Z,4.92
2018-11-25T20:56:30.418Z,4.92
2018-11-25T20:58:59.993Z,4.93
2018-11-25T21:01:29.477Z,4.94
2018-11-25T21:03:58.847Z,4.92
2018-11-25T21:06:28.514Z,4.92
2018-11-25T21:08:57.991Z,4.92
2018-11-25T21:11:27.381Z,4.92
2018-11-25T21:13:56.802Z,4.89
2018-11-25T21:16:26.315Z,4.85
2018-11-25T21:18:55.720Z,4.84
2018-11-25T21:21:25.134Z,4.83
2018-11-25T21:23:54.809Z,4.84
2018-11-25T21:26:24.217Z,4.85
2018-11-25T21:28:53.805Z,4.87
2018-11-25T21:31:23.212Z,4.87
2018-11-25T21:33:52.618Z,4.85
2018-11-25T21:36:22.176Z,4.85
2018-11-25T21:38:51.558Z,4.85
2018-11-25T21:41:20.952Z,4.84
2018-11-25T21:43:50.377Z,4.83
2018-11-25T21:46:19.758Z,4.85
2018-11-25T21:48:49.173Z,4.84
2018-11-25T21:51:18.690Z,4.83
2018-11-25T21:53:48.101Z,4.84
2018-11-25T21:56:17.622Z,4.85
2018-11-25T21:58:47.120Z,4.84
2018-11-25T22:01:16.546Z,4.83
2018-11-25T22:03:45.957Z,4.82
2018-11-25T22:06:15.408Z,4.82
2018-11-25T22:08:44.853Z,4.84
2018-11-25T22:11:14.241Z,4.84
2018-11-25T22:13:43.737Z,4.83
2018-11-25T22:16:13.193Z,4.80
2018-11-25T22:18:42.595Z,4.77
2018-11-25T22:21:12.152Z,4.75
2018-11-25T22:23:41.590Z,4.75
2018-11-25T22:26:10.990Z,4.77
2018-11-25T22:28:40.442Z,4.76
2018-11-25T22:31:09.840Z,4.76
2018-11-25T22:33:39.234Z,4.78
2018-11-25T22:36:08.773Z,4.81
2018-11-25T22:38:38.196Z,4.81
2018-11-25T22:41:07.594Z,4.79
2018-11-25T22:43:37.174Z,4.77
2018-11-25T22:46:07.033Z,4.76
2018-11-25T22:48:36.468Z,4.71
2018-11-25T22:51:06.218Z,4.67
2018-11-25T22:55:04.707Z,4.64
2018-11-25T22:57:34.301Z,4.57
2018-11-25T23:00:03.822Z,4.57
2018-11-25T23:02:33.311Z,4.55
2018-11-25T23:06:18.498Z,4.56
2018-11-25T23:08:47.980Z,4.52
2018-11-25T23:11:17.479Z,4.47
2018-11-25T23:13:46.928Z,4.45
2018-11-25T23:16:16.347Z,4.44
2018-11-25T23:18:45.785Z,4.43
2018-11-25T23:21:15.237Z,4.41
2018-11-25T23:23:44.787Z,4.42
2018-11-25T23:26:14.440Z,4.43
2018-11-25T23:28:43.879Z,4.40
2018-11-25T23:31:13.301Z,4.41
2018-11-25T23:33:42.969Z,4.38
2018-11-25T23:36:12.398Z,4.36
2018-11-25T23:38:41.818Z,4.35
2018-11-25T23:41:11.365Z,4.34
2018-11-25T23:43:40.793Z,4.31
2018-11-25T23:46:10.236Z,4.28
2018-11-25T23:48:39.892Z,4.22
2018-11-25T23:51:09.370Z,4.12
2018-11-25T23:53:38.905Z,4.02
2018-11-25T23:56:08.517Z,3.91
2018-11-25T23:58:37.962Z,3.78
